Buoy 22628

sailwx.info

Track history (hours):
 
Tides and Currents Weather Stations Pressure Air Temp Water Temp Dewpoint Dewpoint Depression Visibility Wind Speed Wind Dir Waves Ship Positions

Drifting buoy 22628

Last reported at 2017-Nov-18 18:00 UTC. Time now 2017-Nov-18 19:42 UTC.
Position N 33°12' W 139°04'.

Barometer 1017.0 mb
Water temperature 20.1 ° C

Date/timePositionNaut miles runAvg speedWind from/ knotsBaromVisibWave heightAir tempDewpointWater temp
2017-Nov-18 18:00N 33°12' W 139°04'1 0.6 1017.0 20.1
2017-Nov-18 17:00N 33°11' W 139°04'1 0.6 1016.9 20.1
2017-Nov-18 16:00N 33°11' W 139°04'1 0.8 1016.5 20.1
2017-Nov-18 15:00N 33°10' W 139°03'0 0.0 1016.4 20.1
2017-Nov-18 14:00N 33°10' W 139°03'1 0.4 1016.7 20.1
2017-Nov-18 12:00N 33°10' W 139°02'1 0.2 1017.3 20.1
2017-Nov-18 07:00N 33°09' W 139°01'1 1.2 1019.4 20.1
2017-Nov-18 06:00N 33°08' W 139°00'0 0.0 1019.3 20.1
2017-Nov-18 05:00N 33°08' W 139°00'0 0.0 1019.0 20.1
2017-Nov-18 04:00N 33°08' W 139°00'1 0.5 1019.0 20.1
2017-Nov-18 03:00N 33°08' W 138°59'1 1.2 1018.9 20.1
2017-Nov-18 02:00N 33°08' W 138°58'0 0.0 1018.6 20.2
2017-Nov-18 01:00N 33°08' W 138°58'0 0.0 1018.5 20.2
2017-Nov-18 00:00N 33°08' W 138°58'1 0.5 1018.7 20.2
2017-Nov-17 23:00N 33°08' W 138°59'2 1.6 1018.9 20.2
2017-Nov-17 22:00N 33°07' W 138°57'1 0.2 1019.3 20.2
2017-Nov-17 19:00N 33°07' W 138°57'1 0.8 1020.8 20.1
2017-Nov-17 18:00N 33°06' W 138°56'1 0.5 1020.3 20.1
2017-Nov-17 17:00N 33°06' W 138°56'1 0.8 1019.7 20.1
2017-Nov-17 16:00N 33°07' W 138°56'1 0.5 1019.2 20.1
2017-Nov-17 15:00N 33°07' W 138°56'1 0.8 1019.0 20.1
2017-Nov-17 14:00N 33°07' W 138°55'1 0.8 1018.7 20.1
2017-Nov-17 13:00N 33°08' W 138°55'0 0.0 1018.7 20.1
2017-Nov-17 12:00N 33°08' W 138°55'0 0.0 1018.6 20.1
2017-Nov-17 10:00N 33°08' W 138°55'1 0.2 1019.0 20.1
2017-Nov-17 07:00N 33°08' W 138°54'1 0.5 1018.7 20.1
2017-Nov-17 06:00N 33°08' W 138°53'0 0.0 1018.4 20.1
2017-Nov-17 05:00N 33°08' W 138°53'1 0.8 1018.1 20.2
2017-Nov-17 04:00N 33°08' W 138°53'1 1.3 1017.8 20.1
2017-Nov-17 03:00N 33°10' W 138°52'0 0.0 1017.4 20.2
2017-Nov-17 02:00N 33°10' W 138°52'0 0.0 1017.1 20.2
2017-Nov-17 01:00N 33°10' W 138°52'1 0.5 1016.9 20.2
2017-Nov-17 00:00N 33°10' W 138°53'1 0.8 1016.5 20.2
2017-Nov-16 23:00N 33°10' W 138°52'2 1.8 1016.4 20.2
2017-Nov-16 22:00N 33°12' W 138°52'0 0.0 1016.6 20.1
2017-Nov-16 20:00N 33°12' W 138°52'0 0.0 1017.8 20.0
2017-Nov-16 19:00N 33°12' W 138°52'1 0.6 1017.7 20.0
2017-Nov-16 18:00N 33°13' W 138°52'1 0.6 1017.3 20.0
2017-Nov-16 17:00N 33°13' W 138°52'1 0.5 1016.9 20.1
2017-Nov-16 16:00N 33°13' W 138°53'2 1.9 1016.3 20.1
2017-Nov-16 15:00N 33°14' W 138°51'0 0.0 1015.9 20.1
2017-Nov-16 14:00N 33°14' W 138°51'1 0.6 1015.5 20.2
2017-Nov-16 13:00N 33°15' W 138°51'0 0.0 1015.4 20.2
2017-Nov-16 12:00N 33°15' W 138°51'0 0.0 1015.4 20.2
2017-Nov-16 11:00N 33°15' W 138°51'3 3.2 1015.7 20.2
2017-Nov-16 10:00N 33°18' W 138°52'1 0.3 1015.8 20.1
2017-Nov-16 07:00N 33°19' W 138°52'1 0.6 1015.9 20.0
2017-Nov-16 06:00N 33°19' W 138°52'1 0.6 1015.8 20.1
2017-Nov-16 05:00N 33°20' W 138°52'1 0.6 1015.4 20.1
2017-Nov-16 04:00N 33°20' W 138°52'1 1.3 1015.1 20.0
2017-Nov-16 03:00N 33°22' W 138°51'0 0.0 1014.5 20.0
2017-Nov-16 02:00N 33°22' W 138°51'1 1.3 1014.1 20.1
2017-Nov-16 01:00N 33°23' W 138°50'1 0.6 1014.1 20.1
2017-Nov-16 00:00N 33°23' W 138°50'0 0.0 1014.0 20.1
2017-Nov-15 23:00N 33°23' W 138°50'0 0.0 1014.1 20.1
2017-Nov-15 22:00N 33°23' W 138°50'4 1.0 1014.4 20.1
2017-Nov-15 18:00N 33°27' W 138°49'0 0.0 1015.5 20.1
2017-Nov-15 17:00N 33°27' W 138°49'1 0.8 1015.3 20.1
2017-Nov-15 16:00N 33°28' W 138°48'1 0.8 1015.0 20.1
2017-Nov-15 15:00N 33°28' W 138°47'1 0.8 1014.6 20.1
2017-Nov-15 14:00N 33°29' W 138°47'2 1.9 1014.6 20.1
2017-Nov-15 13:00N 33°31' W 138°46'0 0.0 1014.8 20.1
2017-Nov-15 12:00N 33°31' W 138°46'1 0.5 1014.8 20.3
2017-Nov-15 11:00N 33°31' W 138°46'3 0.7 1014.9 20.3
2017-Nov-15 07:00N 33°32' W 138°43'3 2.7 1015.8 20.4
2017-Nov-15 06:00N 33°34' W 138°41'1 1.3 1015.6 20.4
2017-Nov-15 05:00N 33°35' W 138°40'0 0.5 1015.2 20.4
2017-Nov-15 04:00N 33°35' W 138°40'1 1.3 1014.8 20.4
2017-Nov-15 03:00N 33°37' W 138°39'2 2.1 1014.8 20.4
2017-Nov-15 02:00N 33°38' W 138°38'0 0.0 1014.5 20.4
2017-Nov-15 01:00N 33°38' W 138°38'2 1.6 1014.7 20.3
2017-Nov-15 00:00N 33°40' W 138°37'0 0.0 1015.5 20.4
2017-Nov-14 23:00N 33°40' W 138°37'0 0.0 1016.9 20.4
2017-Nov-14 22:00N 33°40' W 138°37'3 1.3 1017.1 20.3
2017-Nov-14 20:00N 33°41' W 138°34'1 1.2 1019.0 20.4
2017-Nov-14 19:00N 33°42' W 138°33'0 0.0 1020.2 20.4
2017-Nov-14 18:00N 33°42' W 138°33'1 1.2 1020.6 20.4
2017-Nov-14 17:00N 33°43' W 138°32'0 0.0 1021.1 20.4
2017-Nov-14 16:00N 33°43' W 138°32'2 1.9 1021.2 20.3
2017-Nov-14 15:00N 33°44' W 138°30'1 0.8 1021.0 20.3
2017-Nov-14 14:00N 33°44' W 138°29'1 1.3 1021.7 20.4
2017-Nov-14 13:00N 33°46' W 138°29'0 0.0 1022.0 20.4
2017-Nov-14 12:00N 33°46' W 138°29'0 0.5 1022.2 20.4
2017-Nov-14 11:00N 33°46' W 138°29'4 0.8 1022.8 20.4
2017-Nov-14 06:00N 33°48' W 138°26'0 0.5 1024.6 20.4
2017-Nov-14 05:00N 33°48' W 138°25'2 1.9 1024.2 20.4
2017-Nov-14 04:00N 33°50' W 138°25'0 0.0 1024.4 20.4
2017-Nov-14 03:00N 33°50' W 138°25'1 0.6 1024.2 20.4
2017-Nov-14 02:00N 33°50' W 138°25'1 1.3 1023.6 20.4
2017-Nov-14 01:00N 33°52' W 138°24'1 1.2 1023.3 20.4
2017-Nov-14 00:00N 33°53' W 138°24'0 0.0 1023.1 20.4
2017-Nov-13 23:00N 33°53' W 138°24'0 0.0 1023.2 20.4
2017-Nov-13 22:00N 33°53' W 138°24'2 0.9 1023.4 20.4
2017-Nov-13 20:00N 33°55' W 138°24'1 1.2 1024.4 20.4
2017-Nov-13 19:00N 33°56' W 138°24'1 0.6 1024.2 20.4
2017-Nov-13 18:00N 33°55' W 138°24'1 1.3 1023.9 20.4
2017-Nov-13 17:00N 33°56' W 138°23'1 1.3 1023.3 20.4
2017-Nov-13 16:00N 33°58' W 138°24'1 0.8 1022.5 20.4
2017-Nov-13 15:00N 33°58' W 138°23'0 0.0 1022.1 20.4
2017-Nov-13 14:00N 33°58' W 138°23'0 0.0 1021.6 20.4
2017-Nov-13 13:00N 33°58' W 138°23'2 1.6 1021.1 20.4
2017-Nov-13 12:00N 33°59' W 138°25'4 3.9 1020.9 20.4
2017-Nov-13 11:00N 34°03' W 138°26'0 0.0 1020.7 20.4
2017-Nov-13 07:00N 34°03' W 138°26'1 1.2 1020.3 20.4
2017-Nov-13 06:00N 34°04' W 138°26'2 1.6 1020.2 20.4
2017-Nov-13 05:00N 34°05' W 138°28'0 0.0 1019.4 20.4
2017-Nov-13 04:00N 34°05' W 138°28'1 1.3 1018.8 20.4
2017-Nov-13 03:00N 34°07' W 138°28'0 0.0 1018.2 20.4
2017-Nov-13 02:00N 34°07' W 138°28'0 0.5 1017.5 20.4
2017-Nov-13 01:00N 34°07' W 138°29'2 1.6 1017.3 20.5
2017-Nov-13 00:00N 34°08' W 138°30'0 0.0 1017.0 20.5
2017-Nov-12 23:00N 34°08' W 138°30'3 1.0 1016.9 20.4
2017-Nov-12 20:00N 34°10' W 138°32'1 1.0 1018.3 20.5
2017-Nov-12 19:00N 34°10' W 138°34'1 0.8 1018.7 20.5
2017-Nov-12 18:00N 34°11' W 138°34'1 1.2 1018.4 20.4
2017-Nov-12 17:00N 34°11' W 138°35'0 0.5 1018.3 20.4
2017-Nov-12 16:00N 34°11' W 138°36'0 0.5 1018.0 20.4
2017-Nov-12 15:00N 34°11' W 138°37'1 0.8 1017.7 20.5
2017-Nov-12 14:00N 34°12' W 138°37'1 0.8 1017.4 20.5
2017-Nov-12 13:00N 34°13' W 138°38'0 0.5 1017.4 20.5
2017-Nov-12 12:00N 34°13' W 138°38'0 0.0 1017.6 20.5
2017-Nov-12 11:00N 34°13' W 138°38'4 1.0 1017.7 20.5
2017-Nov-12 07:00N 34°15' W 138°42'1 0.6 1018.6 20.5
2017-Nov-12 06:00N 34°16' W 138°42'1 1.0 1018.4 20.5
2017-Nov-12 05:00N 34°16' W 138°43'1 0.8 1018.4 20.5
2017-Nov-12 04:00N 34°16' W 138°44'1 1.2 1018.3 20.5
2017-Nov-12 03:00N 34°17' W 138°45'1 1.0 1018.0 20.5
2017-Nov-12 02:00N 34°17' W 138°46'0 0.0 1017.6 20.6
2017-Nov-12 01:00N 34°17' W 138°46'1 1.0 1017.4 20.6
2017-Nov-12 00:00N 34°17' W 138°47'0 0.0 1017.5 20.6
2017-Nov-11 23:00N 34°17' W 138°47'2 0.6 1017.8 20.6
2017-Nov-11 20:00N 34°18' W 138°49'0 0.5 1019.9 20.6
2017-Nov-11 19:00N 34°18' W 138°50'0 0.0 1020.1 20.5
2017-Nov-11 18:00N 34°18' W 138°50'1 0.6 1020.2 20.5
2017-Nov-11 17:00N 34°19' W 138°50'1 1.0 1020.1 20.5
2017-Nov-11 16:00N 34°19' W 138°51'1 0.8 1019.7 20.5
2017-Nov-11 15:00N 34°19' W 138°50'0 0.5 1019.5 20.5
2017-Nov-11 14:00N 34°19' W 138°51'1 1.3 1019.4 20.5
2017-Nov-11 13:00N 34°20' W 138°52'0 0.5 1019.3 20.5
2017-Nov-11 12:00N 34°20' W 138°52'2 2.3 1019.5 20.5
2017-Nov-11 11:00N 34°22' W 138°55'0 0.1 1019.8 20.4
2017-Nov-11 07:00N 34°22' W 138°54'1 0.8 1021.0 20.4
2017-Nov-11 06:00N 34°22' W 138°55'1 1.0 1021.0 20.4
2017-Nov-11 05:00N 34°22' W 138°56'0 0.0 1020.9 20.5
2017-Nov-11 04:00N 34°22' W 138°56'1 0.8 1020.7 20.5
2017-Nov-11 03:00N 34°22' W 138°56'1 0.8 1020.0 20.5
2017-Nov-11 02:00N 34°22' W 138°57'0 0.0 1019.4 20.6
2017-Nov-11 01:00N 34°22' W 138°57'0 0.0 1019.5 20.6
2017-Nov-11 00:00N 34°22' W 138°57'2 1.9 1019.5 20.6
2017-Nov-10 23:00N 34°23' W 138°59'0 0.0 1019.6 20.6
2017-Nov-10 21:00N 34°23' W 138°59'0 0.5 1020.6 20.6
2017-Nov-10 20:00N 34°23' W 138°58'1 0.8 1021.0 20.6
2017-Nov-10 19:00N 34°24' W 138°59'0 0.0 1021.1 20.5
2017-Nov-10 18:00N 34°24' W 138°59'0 0.5 1020.9 20.6
2017-Nov-10 17:00N 34°24' W 138°59'1 0.8 1020.6 20.5
2017-Nov-10 16:00N 34°25' W 139°00'0 0.5 1020.1 20.5
2017-Nov-10 15:00N 34°25' W 139°01'0 0.5 1019.7 20.5
2017-Nov-10 14:00N 34°25' W 139°00'2 1.6 1019.3 20.5
2017-Nov-10 13:00N 34°25' W 139°02'0 0.0 1019.2 20.5
2017-Nov-10 12:00N 34°25' W 139°02'2 2.3 1019.1 20.5
2017-Nov-10 11:00N 34°26' W 139°04'1 0.2 1019.5 20.6
2017-Nov-10 06:00N 34°27' W 139°05'0 0.5 1019.7 20.5
2017-Nov-10 05:00N 34°27' W 139°06'0 0.5 1019.2 20.5
2017-Nov-10 04:00N 34°27' W 139°07'1 0.6 1018.8 20.5
2017-Nov-10 03:00N 34°28' W 139°07'0 0.5 1018.2 20.5
2017-Nov-10 02:00N 34°28' W 139°07'1 1.0 1017.7 20.6
2017-Nov-10 01:00N 34°28' W 139°08'0 0.0 1017.7 20.6
2017-Nov-10 00:00N 34°28' W 139°08'0 0.0 1017.6 20.7
2017-Nov-09 23:00N 34°28' W 139°08'2 1.9 1017.3 20.7
2017-Nov-09 22:00N 34°29' W 139°10'1 0.3 1017.5 20.7
2017-Nov-09 19:00N 34°29' W 139°11'1 0.8 1018.2 20.7
2017-Nov-09 18:00N 34°29' W 139°12'0 0.0 1018.1 20.7
2017-Nov-09 17:00N 34°29' W 139°12'1 1.2 1017.6 20.7
2017-Nov-09 16:00N 34°30' W 139°13'0 0.5 1017.0 20.6
2017-Nov-09 15:00N 34°30' W 139°14'1 1.3 1016.7 20.6
2017-Nov-09 14:00N 34°31' W 139°14'2 1.6 1016.3 20.6
2017-Nov-09 13:00N 34°32' W 139°16'4 4.5 1016.2 20.6
2017-Nov-09 12:00N 34°32' W 139°22'1 0.2 1016.0 20.6
2017-Nov-09 07:00N 34°32' W 139°23'1 1.2 1016.2 20.4
2017-Nov-09 06:00N 34°32' W 139°24'1 0.8 1016.2 20.4
2017-Nov-09 05:00N 34°32' W 139°25'1 0.8 1015.8 20.4
2017-Nov-09 04:00N 34°32' W 139°25'1 0.6 1015.8 20.6
2017-Nov-09 03:00N 34°32' W 139°25'0 0.5 1014.9 20.7
2017-Nov-09 02:00N 34°32' W 139°26'1 0.8 1014.3 20.7
2017-Nov-09 01:00N 34°33' W 139°26'0 0.5 1014.4 20.6
2017-Nov-09 00:00N 34°33' W 139°26'2 1.6 1014.1 20.5
2017-Nov-08 23:00N 34°34' W 139°28'0 0.0 1014.2 20.4
2017-Nov-08 22:00N 34°34' W 139°28'3 1.3 1014.5 20.4
2017-Nov-08 20:00N 34°35' W 139°30'1 0.8 1015.2 20.4
2017-Nov-08 19:00N 34°36' W 139°31'   1015.1 20.4
Track history (hours):
 
Tides and Currents Weather Stations Pressure Air Temp Water Temp Dewpoint Dewpoint Depression Visibility Wind Speed Wind Dir Waves Ship Positions

Drifting buoy 22628

Last reported at 2017-Nov-18 18:00 UTC. Time now 2017-Nov-18 19:42 UTC.
Position N 33°12' W 139°04'.

Barometer 1017.0 mb
Water temperature 20.1 ° C

Date/timePositionNaut miles runAvg speedWind from/ knotsBaromVisibWave heightAir tempDewpointWater temp
2017-Nov-18 18:00N 33°12' W 139°04'1 0.6 1017.0 20.1
2017-Nov-18 17:00N 33°11' W 139°04'1 0.6 1016.9 20.1
2017-Nov-18 16:00N 33°11' W 139°04'1 0.8 1016.5 20.1
2017-Nov-18 15:00N 33°10' W 139°03'0 0.0 1016.4 20.1
2017-Nov-18 14:00N 33°10' W 139°03'1 0.4 1016.7 20.1
2017-Nov-18 12:00N 33°10' W 139°02'1 0.2 1017.3 20.1
2017-Nov-18 07:00N 33°09' W 139°01'1 1.2 1019.4 20.1
2017-Nov-18 06:00N 33°08' W 139°00'0 0.0 1019.3 20.1
2017-Nov-18 05:00N 33°08' W 139°00'0 0.0 1019.0 20.1
2017-Nov-18 04:00N 33°08' W 139°00'1 0.5 1019.0 20.1
2017-Nov-18 03:00N 33°08' W 138°59'1 1.2 1018.9 20.1
2017-Nov-18 02:00N 33°08' W 138°58'0 0.0 1018.6 20.2
2017-Nov-18 01:00N 33°08' W 138°58'0 0.0 1018.5 20.2
2017-Nov-18 00:00N 33°08' W 138°58'1 0.5 1018.7 20.2
2017-Nov-17 23:00N 33°08' W 138°59'2 1.6 1018.9 20.2
2017-Nov-17 22:00N 33°07' W 138°57'1 0.2 1019.3 20.2
2017-Nov-17 19:00N 33°07' W 138°57'1 0.8 1020.8 20.1
2017-Nov-17 18:00N 33°06' W 138°56'1 0.5 1020.3 20.1
2017-Nov-17 17:00N 33°06' W 138°56'1 0.8 1019.7 20.1
2017-Nov-17 16:00N 33°07' W 138°56'1 0.5 1019.2 20.1
2017-Nov-17 15:00N 33°07' W 138°56'1 0.8 1019.0 20.1
2017-Nov-17 14:00N 33°07' W 138°55'1 0.8 1018.7 20.1
2017-Nov-17 13:00N 33°08' W 138°55'0 0.0 1018.7 20.1
2017-Nov-17 12:00N 33°08' W 138°55'0 0.0 1018.6 20.1
2017-Nov-17 10:00N 33°08' W 138°55'1 0.2 1019.0 20.1
2017-Nov-17 07:00N 33°08' W 138°54'1 0.5 1018.7 20.1
2017-Nov-17 06:00N 33°08' W 138°53'0 0.0 1018.4 20.1
2017-Nov-17 05:00N 33°08' W 138°53'1 0.8 1018.1 20.2
2017-Nov-17 04:00N 33°08' W 138°53'1 1.3 1017.8 20.1
2017-Nov-17 03:00N 33°10' W 138°52'0 0.0 1017.4 20.2
2017-Nov-17 02:00N 33°10' W 138°52'0 0.0 1017.1 20.2
2017-Nov-17 01:00N 33°10' W 138°52'1 0.5 1016.9 20.2
2017-Nov-17 00:00N 33°10' W 138°53'1 0.8 1016.5 20.2
2017-Nov-16 23:00N 33°10' W 138°52'2 1.8 1016.4 20.2
2017-Nov-16 22:00N 33°12' W 138°52'0 0.0 1016.6 20.1
2017-Nov-16 20:00N 33°12' W 138°52'0 0.0 1017.8 20.0
2017-Nov-16 19:00N 33°12' W 138°52'1 0.6 1017.7 20.0
2017-Nov-16 18:00N 33°13' W 138°52'1 0.6 1017.3 20.0
2017-Nov-16 17:00N 33°13' W 138°52'1 0.5 1016.9 20.1
2017-Nov-16 16:00N 33°13' W 138°53'2 1.9 1016.3 20.1
2017-Nov-16 15:00N 33°14' W 138°51'0 0.0 1015.9 20.1
2017-Nov-16 14:00N 33°14' W 138°51'1 0.6 1015.5 20.2
2017-Nov-16 13:00N 33°15' W 138°51'0 0.0 1015.4 20.2
2017-Nov-16 12:00N 33°15' W 138°51'0 0.0 1015.4 20.2
2017-Nov-16 11:00N 33°15' W 138°51'3 3.2 1015.7 20.2
2017-Nov-16 10:00N 33°18' W 138°52'1 0.3 1015.8 20.1
2017-Nov-16 07:00N 33°19' W 138°52'1 0.6 1015.9 20.0
2017-Nov-16 06:00N 33°19' W 138°52'1 0.6 1015.8 20.1
2017-Nov-16 05:00N 33°20' W 138°52'1 0.6 1015.4 20.1
2017-Nov-16 04:00N 33°20' W 138°52'1 1.3 1015.1 20.0
2017-Nov-16 03:00N 33°22' W 138°51'0 0.0 1014.5 20.0
2017-Nov-16 02:00N 33°22' W 138°51'1 1.3 1014.1 20.1
2017-Nov-16 01:00N 33°23' W 138°50'1 0.6 1014.1 20.1
2017-Nov-16 00:00N 33°23' W 138°50'0 0.0 1014.0 20.1
2017-Nov-15 23:00N 33°23' W 138°50'0 0.0 1014.1 20.1
2017-Nov-15 22:00N 33°23' W 138°50'4 1.0 1014.4 20.1
2017-Nov-15 18:00N 33°27' W 138°49'0 0.0 1015.5 20.1
2017-Nov-15 17:00N 33°27' W 138°49'1 0.8 1015.3 20.1
2017-Nov-15 16:00N 33°28' W 138°48'1 0.8 1015.0 20.1
2017-Nov-15 15:00N 33°28' W 138°47'1 0.8 1014.6 20.1
2017-Nov-15 14:00N 33°29' W 138°47'2 1.9 1014.6 20.1
2017-Nov-15 13:00N 33°31' W 138°46'0 0.0 1014.8 20.1
2017-Nov-15 12:00N 33°31' W 138°46'1 0.5 1014.8 20.3
2017-Nov-15 11:00N 33°31' W 138°46'3 0.7 1014.9 20.3
2017-Nov-15 07:00N 33°32' W 138°43'3 2.7 1015.8 20.4
2017-Nov-15 06:00N 33°34' W 138°41'1 1.3 1015.6 20.4
2017-Nov-15 05:00N 33°35' W 138°40'0 0.5 1015.2 20.4
2017-Nov-15 04:00N 33°35' W 138°40'1 1.3 1014.8 20.4
2017-Nov-15 03:00N 33°37' W 138°39'2 2.1 1014.8 20.4
2017-Nov-15 02:00N 33°38' W 138°38'0 0.0 1014.5 20.4
2017-Nov-15 01:00N 33°38' W 138°38'2 1.6 1014.7 20.3
2017-Nov-15 00:00N 33°40' W 138°37'0 0.0 1015.5 20.4
2017-Nov-14 23:00N 33°40' W 138°37'0 0.0 1016.9 20.4
2017-Nov-14 22:00N 33°40' W 138°37'3 1.3 1017.1 20.3
2017-Nov-14 20:00N 33°41' W 138°34'1 1.2 1019.0 20.4
2017-Nov-14 19:00N 33°42' W 138°33'0 0.0 1020.2 20.4
2017-Nov-14 18:00N 33°42' W 138°33'1 1.2 1020.6 20.4
2017-Nov-14 17:00N 33°43' W 138°32'0 0.0 1021.1 20.4
2017-Nov-14 16:00N 33°43' W 138°32'2 1.9 1021.2 20.3
2017-Nov-14 15:00N 33°44' W 138°30'1 0.8 1021.0 20.3
2017-Nov-14 14:00N 33°44' W 138°29'1 1.3 1021.7 20.4
2017-Nov-14 13:00N 33°46' W 138°29'0 0.0 1022.0 20.4
2017-Nov-14 12:00N 33°46' W 138°29'0 0.5 1022.2 20.4
2017-Nov-14 11:00N 33°46' W 138°29'4 0.8 1022.8 20.4
2017-Nov-14 06:00N 33°48' W 138°26'0 0.5 1024.6 20.4
2017-Nov-14 05:00N 33°48' W 138°25'2 1.9 1024.2 20.4
2017-Nov-14 04:00N 33°50' W 138°25'0 0.0 1024.4 20.4
2017-Nov-14 03:00N 33°50' W 138°25'1 0.6 1024.2 20.4
2017-Nov-14 02:00N 33°50' W 138°25'1 1.3 1023.6 20.4
2017-Nov-14 01:00N 33°52' W 138°24'1 1.2 1023.3 20.4
2017-Nov-14 00:00N 33°53' W 138°24'0 0.0 1023.1 20.4
2017-Nov-13 23:00N 33°53' W 138°24'0 0.0 1023.2 20.4
2017-Nov-13 22:00N 33°53' W 138°24'2 0.9 1023.4 20.4
2017-Nov-13 20:00N 33°55' W 138°24'1 1.2 1024.4 20.4
2017-Nov-13 19:00N 33°56' W 138°24'1 0.6 1024.2 20.4
2017-Nov-13 18:00N 33°55' W 138°24'1 1.3 1023.9 20.4
2017-Nov-13 17:00N 33°56' W 138°23'1 1.3 1023.3 20.4
2017-Nov-13 16:00N 33°58' W 138°24'1 0.8 1022.5 20.4
2017-Nov-13 15:00N 33°58' W 138°23'0 0.0 1022.1 20.4
2017-Nov-13 14:00N 33°58' W 138°23'0 0.0 1021.6 20.4
2017-Nov-13 13:00N 33°58' W 138°23'2 1.6 1021.1 20.4
2017-Nov-13 12:00N 33°59' W 138°25'4 3.9 1020.9 20.4
2017-Nov-13 11:00N 34°03' W 138°26'0 0.0 1020.7 20.4
2017-Nov-13 07:00N 34°03' W 138°26'1 1.2 1020.3 20.4
2017-Nov-13 06:00N 34°04' W 138°26'2 1.6 1020.2 20.4
2017-Nov-13 05:00N 34°05' W 138°28'0 0.0 1019.4 20.4
2017-Nov-13 04:00N 34°05' W 138°28'1 1.3 1018.8 20.4
2017-Nov-13 03:00N 34°07' W 138°28'0 0.0 1018.2 20.4
2017-Nov-13 02:00N 34°07' W 138°28'0 0.5 1017.5 20.4
2017-Nov-13 01:00N 34°07' W 138°29'2 1.6 1017.3 20.5
2017-Nov-13 00:00N 34°08' W 138°30'0 0.0 1017.0 20.5
2017-Nov-12 23:00N 34°08' W 138°30'3 1.0 1016.9 20.4
2017-Nov-12 20:00N 34°10' W 138°32'1 1.0 1018.3 20.5
2017-Nov-12 19:00N 34°10' W 138°34'1 0.8 1018.7 20.5
2017-Nov-12 18:00N 34°11' W 138°34'1 1.2 1018.4 20.4
2017-Nov-12 17:00N 34°11' W 138°35'0 0.5 1018.3 20.4
2017-Nov-12 16:00N 34°11' W 138°36'0 0.5 1018.0 20.4
2017-Nov-12 15:00N 34°11' W 138°37'1 0.8 1017.7 20.5
2017-Nov-12 14:00N 34°12' W 138°37'1 0.8 1017.4 20.5
2017-Nov-12 13:00N 34°13' W 138°38'0 0.5 1017.4 20.5
2017-Nov-12 12:00N 34°13' W 138°38'0 0.0 1017.6 20.5
2017-Nov-12 11:00N 34°13' W 138°38'4 1.0 1017.7 20.5
2017-Nov-12 07:00N 34°15' W 138°42'1 0.6 1018.6 20.5
2017-Nov-12 06:00N 34°16' W 138°42'1 1.0 1018.4 20.5
2017-Nov-12 05:00N 34°16' W 138°43'1 0.8 1018.4 20.5
2017-Nov-12 04:00N 34°16' W 138°44'1 1.2 1018.3 20.5
2017-Nov-12 03:00N 34°17' W 138°45'1 1.0 1018.0 20.5
2017-Nov-12 02:00N 34°17' W 138°46'0 0.0 1017.6 20.6
2017-Nov-12 01:00N 34°17' W 138°46'1 1.0 1017.4 20.6
2017-Nov-12 00:00N 34°17' W 138°47'0 0.0 1017.5 20.6
2017-Nov-11 23:00N 34°17' W 138°47'2 0.6 1017.8 20.6
2017-Nov-11 20:00N 34°18' W 138°49'0 0.5 1019.9 20.6
2017-Nov-11 19:00N 34°18' W 138°50'0 0.0 1020.1 20.5
2017-Nov-11 18:00N 34°18' W 138°50'1 0.6 1020.2 20.5
2017-Nov-11 17:00N 34°19' W 138°50'1 1.0 1020.1 20.5
2017-Nov-11 16:00N 34°19' W 138°51'1 0.8 1019.7 20.5
2017-Nov-11 15:00N 34°19' W 138°50'0 0.5 1019.5 20.5
2017-Nov-11 14:00N 34°19' W 138°51'1 1.3 1019.4 20.5
2017-Nov-11 13:00N 34°20' W 138°52'0 0.5 1019.3 20.5
2017-Nov-11 12:00N 34°20' W 138°52'2 2.3 1019.5 20.5
2017-Nov-11 11:00N 34°22' W 138°55'0 0.1 1019.8 20.4
2017-Nov-11 07:00N 34°22' W 138°54'1 0.8 1021.0 20.4
2017-Nov-11 06:00N 34°22' W 138°55'1 1.0 1021.0 20.4
2017-Nov-11 05:00N 34°22' W 138°56'0 0.0 1020.9 20.5
2017-Nov-11 04:00N 34°22' W 138°56'1 0.8 1020.7 20.5
2017-Nov-11 03:00N 34°22' W 138°56'1 0.8 1020.0 20.5
2017-Nov-11 02:00N 34°22' W 138°57'0 0.0 1019.4 20.6
2017-Nov-11 01:00N 34°22' W 138°57'0 0.0 1019.5 20.6
2017-Nov-11 00:00N 34°22' W 138°57'2 1.9 1019.5 20.6
2017-Nov-10 23:00N 34°23' W 138°59'0 0.0 1019.6 20.6
2017-Nov-10 21:00N 34°23' W 138°59'0 0.5 1020.6 20.6
2017-Nov-10 20:00N 34°23' W 138°58'1 0.8 1021.0 20.6
2017-Nov-10 19:00N 34°24' W 138°59'0 0.0 1021.1 20.5
2017-Nov-10 18:00N 34°24' W 138°59'0 0.5 1020.9 20.6
2017-Nov-10 17:00N 34°24' W 138°59'1 0.8 1020.6 20.5
2017-Nov-10 16:00N 34°25' W 139°00'0 0.5 1020.1 20.5
2017-Nov-10 15:00N 34°25' W 139°01'0 0.5 1019.7 20.5
2017-Nov-10 14:00N 34°25' W 139°00'2 1.6 1019.3 20.5
2017-Nov-10 13:00N 34°25' W 139°02'0 0.0 1019.2 20.5
2017-Nov-10 12:00N 34°25' W 139°02'2 2.3 1019.1 20.5
2017-Nov-10 11:00N 34°26' W 139°04'1 0.2 1019.5 20.6
2017-Nov-10 06:00N 34°27' W 139°05'0 0.5 1019.7 20.5
2017-Nov-10 05:00N 34°27' W 139°06'0 0.5 1019.2 20.5
2017-Nov-10 04:00N 34°27' W 139°07'1 0.6 1018.8 20.5
2017-Nov-10 03:00N 34°28' W 139°07'0 0.5 1018.2 20.5
2017-Nov-10 02:00N 34°28' W 139°07'1 1.0 1017.7 20.6
2017-Nov-10 01:00N 34°28' W 139°08'0 0.0 1017.7 20.6
2017-Nov-10 00:00N 34°28' W 139°08'0 0.0 1017.6 20.7
2017-Nov-09 23:00N 34°28' W 139°08'2 1.9 1017.3 20.7
2017-Nov-09 22:00N 34°29' W 139°10'1 0.3 1017.5 20.7
2017-Nov-09 19:00N 34°29' W 139°11'1 0.8 1018.2 20.7
2017-Nov-09 18:00N 34°29' W 139°12'0 0.0 1018.1 20.7
2017-Nov-09 17:00N 34°29' W 139°12'1 1.2 1017.6 20.7
2017-Nov-09 16:00N 34°30' W 139°13'0 0.5 1017.0 20.6
2017-Nov-09 15:00N 34°30' W 139°14'1 1.3 1016.7 20.6
2017-Nov-09 14:00N 34°31' W 139°14'2 1.6 1016.3 20.6
2017-Nov-09 13:00N 34°32' W 139°16'4 4.5 1016.2 20.6
2017-Nov-09 12:00N 34°32' W 139°22'1 0.2 1016.0 20.6
2017-Nov-09 07:00N 34°32' W 139°23'1 1.2 1016.2 20.4
2017-Nov-09 06:00N 34°32' W 139°24'1 0.8 1016.2 20.4
2017-Nov-09 05:00N 34°32' W 139°25'1 0.8 1015.8 20.4
2017-Nov-09 04:00N 34°32' W 139°25'1 0.6 1015.8 20.6
2017-Nov-09 03:00N 34°32' W 139°25'0 0.5 1014.9 20.7
2017-Nov-09 02:00N 34°32' W 139°26'1 0.8 1014.3 20.7
2017-Nov-09 01:00N 34°33' W 139°26'0 0.5 1014.4 20.6
2017-Nov-09 00:00N 34°33' W 139°26'2 1.6 1014.1 20.5
2017-Nov-08 23:00N 34°34' W 139°28'0 0.0 1014.2 20.4
2017-Nov-08 22:00N 34°34' W 139°28'3 1.3 1014.5 20.4
2017-Nov-08 20:00N 34°35' W 139°30'1 0.8 1015.2 20.4
2017-Nov-08 19:00N 34°36' W 139°31'   1015.1 20.4

Dump ship's entire track history